Time;durP1;ratioP1;P1;durP2;ratioP2;P2;SDS_P1;SDS_P2;PMS_P1;PMS_P2;Temp;Humidity;BMP_temperature;BMP_pressure;BME280_temperature;BME280_humidity;BME280_pressure;Samples;Min_cycle;Max_cycle;Signal;HPM_P1;HPM_P2
2022/01/28 00:04:49;;;;;;;72.22;39.10;;;;;;;;;;4823295;29;89234;-73
2022/01/28 00:07:16;;;;;;;97.85;37.63;;;;;;;;;;4792397;29;89596;-73
2022/01/28 00:09:43;;;;;;;79.75;38.90;;;;;;;;;;4808999;29;87062;-72
2022/01/28 00:12:11;;;;;;;78.15;40.25;;;;;;;;;;4793500;29;86593;-72
2022/01/28 00:15:30;;;;;;;107.10;49.00;;;;;;;;;;4808619;29;88558;-72
2022/01/28 00:39:10;;;;;;;78.00;36.90;;;;;;;;;;4807062;29;88999;-72
2022/01/28 00:41:37;;;;;;;73.93;34.40;;;;;;;;;;4808483;29;86967;-75
2022/01/28 00:44:04;;;;;;;60.03;33.55;;;;;;;;;;4807810;29;87521;-74
2022/01/28 00:46:32;;;;;;;71.88;40.10;;;;;;;;;;4808038;29;89318;-72
2022/01/28 00:48:59;;;;;;;76.68;33.97;;;;;;;;;;4794976;29;89864;-72
2022/01/28 00:51:30;;;;;;;73.97;36.53;;;;;;;;;;4804680;29;86948;-72
2022/01/28 00:53:57;;;;;;;65.15;32.78;;;;;;;;;;4808316;29;87171;-73
2022/01/28 00:56:24;;;;;;;60.85;32.17;;;;;;;;;;4794944;29;87810;-74
2022/01/28 00:58:50;;;;;;;60.72;32.85;;;;;;;;;;4818009;29;89121;-73
2022/01/28 01:01:17;;;;;;;60.55;31.02;;;;;;;;;;4826486;29;86962;-73
2022/01/28 01:03:45;;;;;;;61.85;32.65;;;;;;;;;;4811050;29;86366;-74
2022/01/28 01:06:12;;;;;;;60.53;33.03;;;;;;;;;;4809004;29;88861;-74
2022/01/28 01:08:39;;;;;;;61.33;35.15;;;;;;;;;;4793020;29;89492;-74
2022/01/28 01:11:06;;;;;;;65.55;34.22;;;;;;;;;;4804949;29;87889;-74
2022/01/28 01:13:37;;;;;;;56.47;31.80;;;;;;;;;;4795683;29;87002;-73
2022/01/28 01:16:05;;;;;;;58.55;32.42;;;;;;;;;;4795321;29;87429;-73
2022/01/28 01:21:26;;;;;;;57.63;30.55;;;;;;;;;;4795351;29;86899;-77
2022/01/28 01:23:55;;;;;;;63.67;32.45;;;;;;;;;;4781673;29;86896;-73
2022/01/28 01:26:34;;;;;;;52.35;28.65;;;;;;;;;;4806880;29;89277;-73
2022/01/28 01:29:06;;;;;;;61.65;33.45;;;;;;;;;;4795387;29;89615;-74
2022/01/28 01:31:33;;;;;;;64.50;33.95;;;;;;;;;;4795320;29;86920;-74
2022/01/28 01:34:10;;;;;;;67.55;32.38;;;;;;;;;;4811291;29;87179;-74
2022/01/28 01:36:37;;;;;;;64.93;32.33;;;;;;;;;;4795902;29;90618;-74
2022/01/28 01:39:07;;;;;;;54.33;30.50;;;;;;;;;;4793448;29;88583;-77
2022/01/28 01:41:43;;;;;;;53.25;28.77;;;;;;;;;;4809428;29;87212;-74
2022/01/28 01:44:24;;;;;;;43.75;29.38;;;;;;;;;;4809867;29;87548;-75
2022/01/28 01:52:39;;;;;;;95.05;28.13;;;;;;;;;;4811215;29;87119;-74
2022/01/28 01:55:07;;;;;;;46.65;25.70;;;;;;;;;;4794896;29;86264;-74
2022/01/28 01:57:34;;;;;;;51.25;23.08;;;;;;;;;;4779429;29;89578;-73
2022/01/28 02:00:02;;;;;;;48.63;26.85;;;;;;;;;;4811228;29;88854;-73
2022/01/28 02:02:29;;;;;;;41.20;25.30;;;;;;;;;;4808062;29;88253;-74
2022/01/28 02:04:57;;;;;;;48.17;25.25;;;;;;;;;;4809307;29;87823;-74
2022/01/28 02:07:25;;;;;;;41.80;24.90;;;;;;;;;;4778161;29;89564;-74
2022/01/28 02:09:52;;;;;;;45.95;25.60;;;;;;;;;;4810789;29;89467;-73
2022/01/28 02:12:19;;;;;;;59.28;23.73;;;;;;;;;;4810862;29;86825;-74
2022/01/28 02:14:46;;;;;;;60.60;25.23;;;;;;;;;;4809428;29;86977;-73
2022/01/28 02:17:13;;;;;;;42.92;22.83;;;;;;;;;;4810643;29;88890;-73
2022/01/28 02:19:40;;;;;;;44.65;26.77;;;;;;;;;;4824297;29;89278;-73
2022/01/28 02:22:08;;;;;;;41.67;22.80;;;;;;;;;;4810878;29;87448;-73
2022/01/28 02:24:41;;;;;;;40.17;24.75;;;;;;;;;;4808987;29;86965;-74
2022/01/28 02:27:10;;;;;;;38.38;24.70;;;;;;;;;;4808933;29;89168;-73
2022/01/28 02:29:38;;;;;;;40.88;23.50;;;;;;;;;;4809354;29;90277;-73
2022/01/28 02:32:07;;;;;;;42.40;27.27;;;;;;;;;;4810252;29;86922;-74
2022/01/28 02:34:38;;;;;;;46.78;24.05;;;;;;;;;;4809521;29;86945;-74
2022/01/28 02:37:05;;;;;;;50.50;27.77;;;;;;;;;;4809767;29;89459;-74
2022/01/28 02:39:33;;;;;;;69.47;26.70;;;;;;;;;;4823707;29;88567;-73
2022/01/28 02:42:12;;;;;;;48.50;27.20;;;;;;;;;;4808844;29;86932;-73
2022/01/28 02:44:52;;;;;;;36.67;25.42;;;;;;;;;;4811010;29;86150;-76
2022/01/28 02:47:30;;;;;;;42.17;25.83;;;;;;;;;;4808317;29;89712;-74
2022/01/28 02:49:57;;;;;;;60.50;27.67;;;;;;;;;;4810360;29;89451;-75
2022/01/28 02:52:35;;;;;;;52.05;23.50;;;;;;;;;;4808848;29;88177;-75
2022/01/28 02:55:08;;;;;;;55.35;25.25;;;;;;;;;;4823460;29;87259;-73
2022/01/28 02:57:39;;;;;;;66.60;27.63;;;;;;;;;;4808429;29;89812;-73
2022/01/28 03:00:06;;;;;;;43.72;28.00;;;;;;;;;;4815197;29;88992;-75
2022/01/28 03:02:33;;;;;;;85.43;27.85;;;;;;;;;;4824649;29;86837;-75
2022/01/28 03:05:23;;;;;;;46.85;28.27;;;;;;;;;;4793884;29;87023;-76
2022/01/28 03:07:47;;;;;;;56.72;28.88;;;;;;;;;;4809611;29;88837;-74
2022/01/28 03:10:28;;;;;;;46.40;28.75;;;;;;;;;;4808543;29;88905;-73
2022/01/28 03:13:03;;;;;;;88.05;30.30;;;;;;;;;;4808515;29;86908;-73
2022/01/28 03:15:32;;;;;;;84.47;32.92;;;;;;;;;;4808606;29;87042;-75
2022/01/28 03:18:12;;;;;;;67.90;32.15;;;;;;;;;;4823062;29;90084;-73
2022/01/28 03:20:44;;;;;;;64.25;33.72;;;;;;;;;;4801080;29;90199;-74
2022/01/28 03:23:11;;;;;;;76.68;28.83;;;;;;;;;;4809938;29;87367;-73
2022/01/28 03:25:43;;;;;;;53.42;30.30;;;;;;;;;;4808062;29;86971;-73
2022/01/28 03:28:11;;;;;;;69.68;30.73;;;;;;;;;;4808397;29;88656;-78
2022/01/28 03:30:37;;;;;;;98.43;30.75;;;;;;;;;;4807548;29;89260;-73
2022/01/28 03:33:05;;;;;;;128.45;29.98;;;;;;;;;;4823271;29;87288;-74
2022/01/28 03:35:33;;;;;;;82.30;29.88;;;;;;;;;;4810207;29;86305;-74
2022/01/28 03:38:02;;;;;;;43.65;26.90;;;;;;;;;;4807826;29;88740;-72
2022/01/28 03:40:35;;;;;;;57.75;28.23;;;;;;;;;;4823041;29;89317;-73
2022/01/28 03:43:06;;;;;;;94.60;28.07;;;;;;;;;;4809395;29;87771;-74
2022/01/28 03:45:33;;;;;;;70.45;26.42;;;;;;;;;;4809263;29;87232;-75
2022/01/28 03:48:00;;;;;;;83.13;27.35;;;;;;;;;;4809413;29;88855;-75
2022/01/28 03:50:32;;;;;;;75.53;24.50;;;;;;;;;;4807683;29;89062;-73
2022/01/28 03:53:00;;;;;;;59.75;26.95;;;;;;;;;;4809698;29;87231;-74
2022/01/28 03:55:27;;;;;;;63.67;24.10;;;;;;;;;;4823306;29;87229;-73
2022/01/28 03:57:54;;;;;;;83.13;29.05;;;;;;;;;;4809495;29;89766;-73
2022/01/28 04:00:26;;;;;;;85.13;28.55;;;;;;;;;;4809635;29;89684;-74
2022/01/28 04:03:04;;;;;;;88.63;30.40;;;;;;;;;;4806118;29;86931;-74
2022/01/28 04:13:35;;;;;;;46.15;26.73;;;;;;;;;;4820901;29;86900;-77
2022/01/28 04:16:27;;;;;;;54.00;29.27;;;;;;;;;;4791114;29;86960;-77
2022/01/28 04:18:51;;;;;;;54.78;28.20;;;;;;;;;;4788812;29;89818;-74
2022/01/28 04:21:18;;;;;;;46.15;28.35;;;;;;;;;;4809275;29;87599;-74
2022/01/28 04:23:45;;;;;;;48.72;27.08;;;;;;;;;;4793094;29;87503;-73
2022/01/28 04:26:16;;;;;;;49.35;26.05;;;;;;;;;;4807856;29;86217;-83
2022/01/28 04:28:43;;;;;;;57.13;31.23;;;;;;;;;;4810991;29;88990;-75
2022/01/28 04:31:10;;;;;;;52.08;26.52;;;;;;;;;;4810358;29;87261;-74
2022/01/28 04:33:37;;;;;;;52.13;23.67;;;;;;;;;;4811832;29;87894;-73
2022/01/28 04:36:07;;;;;;;62.03;25.70;;;;;;;;;;4804177;29;87017;-77
2022/01/28 04:38:42;;;;;;;56.20;30.85;;;;;;;;;;4794031;29;88955;-74
2022/01/28 04:41:33;;;;;;;59.08;25.88;;;;;;;;;;4817380;29;89066;-74
2022/01/28 04:44:09;;;;;;;53.35;24.05;;;;;;;;;;4823939;29;87206;-74
2022/01/28 04:46:44;;;;;;;35.97;21.73;;;;;;;;;;4824580;29;87360;-77
2022/01/28 04:49:24;;;;;;;56.40;25.35;;;;;;;;;;4810714;29;89147;-74
2022/01/28 05:05:04;;;;;;;121.25;24.85;;;;;;;;;;4810534;29;87558;-80
2022/01/28 05:13:20;;;;;;;68.57;20.23;;;;;;;;;;4808928;29;87431;-73
2022/01/28 05:28:48;;;;;;;32.42;19.27;;;;;;;;;;4825651;29;87015;-74
2022/01/28 05:31:19;;;;;;;93.30;23.02;;;;;;;;;;4825440;29;89607;-73
2022/01/28 05:33:46;;;;;;;74.47;21.75;;;;;;;;;;4809389;29;87695;-72
2022/01/28 05:36:13;;;;;;;65.78;22.10;;;;;;;;;;4809874;29;87444;-72
2022/01/28 05:38:41;;;;;;;46.88;21.98;;;;;;;;;;4823937;29;86985;-73
2022/01/28 05:41:08;;;;;;;92.25;26.83;;;;;;;;;;4810488;29;88866;-72
2022/01/28 05:43:35;;;;;;;59.50;22.20;;;;;;;;;;4811342;29;88775;-72
2022/01/28 05:46:02;;;;;;;74.85;24.85;;;;;;;;;;4809137;29;87304;-72
2022/01/28 05:48:29;;;;;;;73.90;23.42;;;;;;;;;;4811444;29;86964;-73
2022/01/28 05:50:56;;;;;;;54.92;22.42;;;;;;;;;;4824221;29;90591;-74
2022/01/28 05:53:23;;;;;;;56.95;23.00;;;;;;;;;;4808871;29;89996;-73
2022/01/28 05:55:50;;;;;;;40.25;20.33;;;;;;;;;;4824885;29;86887;-73
2022/01/28 05:58:17;;;;;;;72.63;21.38;;;;;;;;;;4811393;29;87166;-72
2022/01/28 06:00:44;;;;;;;64.95;23.27;;;;;;;;;;4809123;29;88996;-74
2022/01/28 06:03:11;;;;;;;55.42;21.42;;;;;;;;;;4825116;29;89791;-75
2022/01/28 06:05:39;;;;;;;71.05;23.45;;;;;;;;;;4823292;29;87017;-75
2022/01/28 06:08:06;;;;;;;43.85;23.02;;;;;;;;;;4807672;29;86427;-75
2022/01/28 06:10:33;;;;;;;59.50;22.58;;;;;;;;;;4808103;29;88984;-75
2022/01/28 06:13:00;;;;;;;85.32;27.20;;;;;;;;;;4808395;29;88203;-75
2022/01/28 06:15:27;;;;;;;53.30;26.00;;;;;;;;;;4824229;29;87987;-73
2022/01/28 06:17:53;;;;;;;64.15;22.15;;;;;;;;;;4824877;29;87370;-74
2022/01/28 06:20:21;;;;;;;67.20;23.08;;;;;;;;;;4824555;29;89263;-78
2022/01/28 06:22:49;;;;;;;65.13;24.92;;;;;;;;;;4810520;29;89178;-70
2022/01/28 06:25:16;;;;;;;75.65;28.85;;;;;;;;;;4810442;29;87495;-70
2022/01/28 06:27:43;;;;;;;79.60;26.73;;;;;;;;;;4809981;29;87375;-71
2022/01/28 06:30:11;;;;;;;62.33;27.67;;;;;;;;;;4809479;29;89715;-71
2022/01/28 06:32:38;;;;;;;62.58;28.00;;;;;;;;;;4810618;29;89833;-70
2022/01/28 06:35:08;;;;;;;60.05;27.70;;;;;;;;;;4806179;29;87155;-71
2022/01/28 06:37:41;;;;;;;68.65;27.15;;;;;;;;;;4808530;29;87242;-71
2022/01/28 06:40:13;;;;;;;63.78;25.02;;;;;;;;;;4807146;29;88865;-70
2022/01/28 06:42:41;;;;;;;65.22;23.92;;;;;;;;;;4823319;29;88495;-70
2022/01/28 06:45:09;;;;;;;54.25;22.25;;;;;;;;;;4810206;29;86888;-72
2022/01/28 06:47:36;;;;;;;36.83;19.17;;;;;;;;;;4808018;29;86983;-71
2022/01/28 06:50:05;;;;;;;64.00;20.35;;;;;;;;;;4824121;29;87793;-71
2022/01/28 06:52:33;;;;;;;41.78;17.83;;;;;;;;;;4806818;29;89348;-71
2022/01/28 06:55:01;;;;;;;39.42;18.83;;;;;;;;;;4808115;29;87571;-71
2022/01/28 06:57:29;;;;;;;57.70;20.33;;;;;;;;;;4807319;29;86389;-71
2022/01/28 06:59:57;;;;;;;44.45;21.75;;;;;;;;;;4800143;29;88170;-71
2022/01/28 07:02:25;;;;;;;36.00;20.95;;;;;;;;;;4800998;29;87521;-71
2022/01/28 07:04:52;;;;;;;29.23;21.42;;;;;;;;;;4805384;29;88097;-71
2022/01/28 07:07:22;;;;;;;34.08;18.67;;;;;;;;;;4808694;29;86917;-70
2022/01/28 07:09:49;;;;;;;42.88;18.52;;;;;;;;;;4806135;29;87858;-71
2022/01/28 07:12:17;;;;;;;39.25;20.40;;;;;;;;;;4801796;29;87959;-71
2022/01/28 07:14:44;;;;;;;30.98;20.80;;;;;;;;;;4812674;29;87057;-70
2022/01/28 07:17:11;;;;;;;64.30;36.17;;;;;;;;;;4803464;29;87643;-70
2022/01/28 07:19:38;;;;;;;124.72;56.85;;;;;;;;;;4807959;29;87973;-70
2022/01/28 07:22:06;;;;;;;57.13;36.67;;;;;;;;;;4808205;29;89278;-71
2022/01/28 07:24:34;;;;;;;68.35;29.10;;;;;;;;;;4823217;29;87176;-70
2022/01/28 07:27:01;;;;;;;51.97;28.65;;;;;;;;;;4804974;29;87110;-70
2022/01/28 07:29:33;;;;;;;80.50;39.22;;;;;;;;;;4804351;29;90298;-70
2022/01/28 07:32:02;;;;;;;86.53;42.05;;;;;;;;;;4806640;29;86987;-70
2022/01/28 07:34:29;;;;;;;74.65;38.28;;;;;;;;;;4805110;29;87527;-76
2022/01/28 07:36:56;;;;;;;60.67;31.48;;;;;;;;;;4790866;29;87391;-69
2022/01/28 07:39:23;;;;;;;60.05;31.92;;;;;;;;;;4790998;29;89277;-72
2022/01/28 07:41:50;;;;;;;70.90;33.38;;;;;;;;;;4792282;29;87581;-72
2022/01/28 07:44:17;;;;;;;65.13;33.78;;;;;;;;;;4789891;29;87667;-73
2022/01/28 07:46:44;;;;;;;83.38;31.95;;;;;;;;;;4819079;29;86521;-73
2022/01/28 07:49:15;;;;;;;78.25;35.75;;;;;;;;;;4790400;29;87733;-72
2022/01/28 07:51:42;;;;;;;62.28;32.75;;;;;;;;;;4814329;29;87444;-69
2022/01/28 07:54:09;;;;;;;54.53;28.92;;;;;;;;;;4804222;29;88275;-73
2022/01/28 07:56:37;;;;;;;59.50;32.03;;;;;;;;;;4805406;29;87072;-72
2022/01/28 07:59:04;;;;;;;64.03;31.52;;;;;;;;;;4804947;29;88079;-71
2022/01/28 08:01:31;;;;;;;78.00;31.65;;;;;;;;;;4817551;29;87924;-71
2022/01/28 08:03:59;;;;;;;53.60;32.45;;;;;;;;;;4788241;29;87036;-72
2022/01/28 08:06:26;;;;;;;60.63;30.30;;;;;;;;;;4818865;29;87357;-71
2022/01/28 08:08:54;;;;;;;46.58;28.75;;;;;;;;;;4801013;29;88011;-73
2022/01/28 08:11:21;;;;;;;44.13;25.10;;;;;;;;;;4775731;29;88120;-73
2022/01/28 08:13:48;;;;;;;50.90;28.85;;;;;;;;;;4796758;29;86907;-72
2022/01/28 08:16:15;;;;;;;58.20;26.30;;;;;;;;;;4797209;29;87436;-72
2022/01/28 08:18:42;;;;;;;61.20;28.15;;;;;;;;;;4804614;29;88832;-73
2022/01/28 08:21:10;;;;;;;48.17;27.27;;;;;;;;;;4817518;29;88491;-73
2022/01/28 08:23:37;;;;;;;49.50;27.05;;;;;;;;;;4806730;29;87354;-73
2022/01/28 08:26:04;;;;;;;47.75;28.75;;;;;;;;;;4802538;29;87007;-73
2022/01/28 08:28:31;;;;;;;63.17;31.60;;;;;;;;;;4807893;29;88276;-73
2022/01/28 08:30:59;;;;;;;57.55;34.65;;;;;;;;;;4801332;29;89593;-77
2022/01/28 08:33:27;;;;;;;42.38;25.13;;;;;;;;;;4803840;29;87515;-73
2022/01/28 08:35:55;;;;;;;49.28;29.73;;;;;;;;;;4805456;29;86688;-71
2022/01/28 08:38:26;;;;;;;51.35;27.77;;;;;;;;;;4797197;29;89823;-68
2022/01/28 08:40:55;;;;;;;41.33;25.67;;;;;;;;;;4802281;29;89176;-70
2022/01/28 08:43:23;;;;;;;45.78;25.40;;;;;;;;;;4803428;29;89645;-72
2022/01/28 08:45:50;;;;;;;45.63;28.35;;;;;;;;;;4817231;29;87005;-71
2022/01/28 08:48:16;;;;;;;55.88;28.02;;;;;;;;;;4816137;29;89529;-70
2022/01/28 08:50:44;;;;;;;51.38;27.17;;;;;;;;;;4791067;29;89291;-69
2022/01/28 08:53:12;;;;;;;52.15;28.15;;;;;;;;;;4802311;29;86865;-70
2022/01/28 08:55:39;;;;;;;49.97;26.10;;;;;;;;;;4789149;29;87195;-70
2022/01/28 08:58:09;;;;;;;42.38;25.30;;;;;;;;;;4797920;29;88956;-70
2022/01/28 09:00:37;;;;;;;48.72;27.73;;;;;;;;;;4793834;29;89546;-69
2022/01/28 09:03:04;;;;;;;42.42;24.42;;;;;;;;;;4796727;29;88185;-71
2022/01/28 09:05:33;;;;;;;48.78;31.13;;;;;;;;;;4803998;29;87088;-73
2022/01/28 09:08:08;;;;;;;52.55;31.55;;;;;;;;;;4801014;29;90947;-69
2022/01/28 09:10:38;;;;;;;51.78;30.73;;;;;;;;;;4804367;29;88900;-69
2022/01/28 09:15:42;;;;;;;63.28;33.45;;;;;;;;;;4803867;29;87098;-69
2022/01/28 09:18:09;;;;;;;64.45;30.35;;;;;;;;;;4799397;29;89453;-70
2022/01/28 09:20:36;;;;;;;95.13;56.88;;;;;;;;;;4780463;29;89128;-72
2022/01/28 09:23:05;;;;;;;74.95;39.65;;;;;;;;;;4809626;29;87201;-76
2022/01/28 09:25:34;;;;;;;74.70;42.53;;;;;;;;;;4815265;29;86611;-73
2022/01/28 09:28:01;;;;;;;78.35;45.15;;;;;;;;;;4818934;29;89072;-72
2022/01/28 09:30:29;;;;;;;78.00;42.22;;;;;;;;;;4809641;29;89023;-70
2022/01/28 09:32:57;;;;;;;79.55;46.00;;;;;;;;;;4809331;29;88671;-71
2022/01/28 09:35:25;;;;;;;88.95;47.22;;;;;;;;;;4822234;29;87037;-68
2022/01/28 09:37:52;;;;;;;78.88;42.83;;;;;;;;;;4792250;29;89131;-67
2022/01/28 09:40:20;;;;;;;81.90;43.47;;;;;;;;;;4794121;29;88924;-67
2022/01/28 09:42:48;;;;;;;87.15;40.28;;;;;;;;;;4808943;29;86945;-67
2022/01/28 09:45:16;;;;;;;82.28;42.80;;;;;;;;;;4794781;29;86943;-67
2022/01/28 09:47:46;;;;;;;86.75;46.50;;;;;;;;;;4824257;29;88081;-67
2022/01/28 09:50:14;;;;;;;100.40;50.25;;;;;;;;;;4812081;29;87902;-67
2022/01/28 09:52:41;;;;;;;91.25;50.33;;;;;;;;;;4823693;29;87286;-68
2022/01/28 09:55:08;;;;;;;100.70;49.85;;;;;;;;;;4793435;29;87529;-69
2022/01/28 09:57:36;;;;;;;88.47;47.75;;;;;;;;;;4816437;29;90498;-71
2022/01/28 10:00:05;;;;;;;89.47;42.60;;;;;;;;;;4814230;29;90905;-70
2022/01/28 10:02:59;;;;;;;83.05;47.70;;;;;;;;;;4804688;29;86946;-70
2022/01/28 10:05:29;;;;;;;85.05;45.67;;;;;;;;;;4812356;29;86955;-68
2022/01/28 10:08:12;;;;;;;90.30;46.65;;;;;;;;;;4821955;29;90192;-66
2022/01/28 10:11:01;;;;;;;80.90;44.92;;;;;;;;;;4822431;29;89369;-66
2022/01/28 10:13:41;;;;;;;86.85;42.65;;;;;;;;;;4809103;29;87108;-65
2022/01/28 10:16:23;;;;;;;80.00;40.47;;;;;;;;;;4809691;29;86351;-65
2022/01/28 10:19:01;;;;;;;77.82;41.00;;;;;;;;;;4793037;29;89237;-67
2022/01/28 10:21:30;;;;;;;101.15;47.78;;;;;;;;;;4823803;29;88951;-64
2022/01/28 10:23:58;;;;;;;68.53;40.10;;;;;;;;;;4808682;29;88801;-66
2022/01/28 10:26:48;;;;;;;84.18;49.78;;;;;;;;;;4809487;29;86937;-66
2022/01/28 10:29:18;;;;;;;83.85;49.08;;;;;;;;;;4804488;29;89360;-66
2022/01/28 10:31:51;;;;;;;88.13;45.80;;;;;;;;;;4802923;29;89089;-66
2022/01/28 10:34:25;;;;;;;67.63;41.63;;;;;;;;;;4801858;29;87543;-66
2022/01/28 10:37:08;;;;;;;61.78;37.90;;;;;;;;;;4792984;29;87836;-66
2022/01/28 10:39:57;;;;;;;65.13;37.00;;;;;;;;;;4809318;29;89232;-67
2022/01/28 10:42:50;;;;;;;49.63;33.75;;;;;;;;;;4804869;29;89322;-66
2022/01/28 10:45:28;;;;;;;67.78;40.28;;;;;;;;;;4809668;29;86959;-67
2022/01/28 10:47:58;;;;;;;65.10;39.03;;;;;;;;;;4809418;29;87200;-66
2022/01/28 10:50:26;;;;;;;46.03;33.17;;;;;;;;;;4808748;29;91137;-67
2022/01/28 10:52:59;;;;;;;46.00;34.60;;;;;;;;;;4819205;29;89814;-66
2022/01/28 10:55:26;;;;;;;46.83;30.40;;;;;;;;;;4796649;29;87385;-66
2022/01/28 10:58:00;;;;;;;46.13;31.50;;;;;;;;;;4805198;29;87018;-66
2022/01/28 11:00:33;;;;;;;43.75;29.75;;;;;;;;;;4809529;29;89139;-67
2022/01/28 11:03:03;;;;;;;39.95;28.40;;;;;;;;;;4792067;29;88939;-66
2022/01/28 11:05:33;;;;;;;77.75;44.63;;;;;;;;;;4808912;29;87265;-66
2022/01/28 11:08:01;;;;;;;57.78;33.35;;;;;;;;;;4809408;29;86122;-66
2022/01/28 11:10:30;;;;;;;45.03;30.65;;;;;;;;;;4791922;29;88299;-68
2022/01/28 11:12:59;;;;;;;52.33;35.30;;;;;;;;;;4823589;29;88819;-68
2022/01/28 11:15:27;;;;;;;88.38;48.30;;;;;;;;;;4790784;29;87858;-68
2022/01/28 11:17:54;;;;;;;59.60;37.40;;;;;;;;;;4808701;29;87051;-68
2022/01/28 11:20:23;;;;;;;34.35;26.00;;;;;;;;;;4809210;29;89205;-68
2022/01/28 11:23:30;;;;;;;37.00;27.13;;;;;;;;;;4808633;29;89422;-68
2022/01/28 11:26:07;;;;;;;36.10;25.40;;;;;;;;;;4808592;29;87017;-68
2022/01/28 11:28:41;;;;;;;34.92;23.90;;;;;;;;;;4808967;29;87518;-69
2022/01/28 11:31:09;;;;;;;37.03;25.58;;;;;;;;;;4792391;29;87140;-69
2022/01/28 11:33:52;;;;;;;36.53;26.42;;;;;;;;;;4802798;29;90131;-68
2022/01/28 11:36:36;;;;;;;32.75;25.92;;;;;;;;;;4798938;29;87162;-69
2022/01/28 11:39:23;;;;;;;35.40;24.42;;;;;;;;;;4806221;29;86972;-67
2022/01/28 11:42:01;;;;;;;34.55;25.55;;;;;;;;;;4790169;29;90823;-68
2022/01/28 11:44:54;;;;;;;39.85;27.25;;;;;;;;;;4800164;29;88677;-70
2022/01/28 11:47:25;;;;;;;40.90;27.35;;;;;;;;;;4806131;29;87242;-71
2022/01/28 11:50:28;;;;;;;39.38;26.65;;;;;;;;;;4807089;29;87001;-69
2022/01/28 11:52:58;;;;;;;35.80;24.58;;;;;;;;;;4761279;29;89356;-69
2022/01/28 11:55:28;;;;;;;34.75;24.80;;;;;;;;;;4805733;29;89819;-70
2022/01/28 11:58:07;;;;;;;34.22;23.15;;;;;;;;;;4809727;29;87208;-68
2022/01/28 12:00:45;;;;;;;37.75;23.48;;;;;;;;;;4813003;29;87809;-68
2022/01/28 12:03:20;;;;;;;33.08;24.73;;;;;;;;;;4826527;29;87783;-69
2022/01/28 12:05:47;;;;;;;28.55;22.55;;;;;;;;;;4786827;29;87574;-69
2022/01/28 12:08:17;;;;;;;32.47;22.77;;;;;;;;;;4810897;29;87987;-70
2022/01/28 12:10:45;;;;;;;29.58;22.35;;;;;;;;;;4803454;29;87454;-69
2022/01/28 12:13:17;;;;;;;28.92;21.05;;;;;;;;;;4792114;29;87716;-69
2022/01/28 12:16:04;;;;;;;25.60;20.10;;;;;;;;;;4805814;29;88381;-71
2022/01/28 12:18:47;;;;;;;25.58;20.98;;;;;;;;;;4803744;29;87850;-68
2022/01/28 12:21:17;;;;;;;23.90;20.10;;;;;;;;;;4819560;29;87187;-69
2022/01/28 12:23:46;;;;;;;27.95;19.67;;;;;;;;;;4801953;29;87736;-69
2022/01/28 12:26:16;;;;;;;24.02;19.58;;;;;;;;;;4801421;29;87627;-68
2022/01/28 12:28:44;;;;;;;23.58;20.05;;;;;;;;;;4806883;29;87484;-69
2022/01/28 12:31:26;;;;;;;25.17;20.77;;;;;;;;;;4804831;29;87328;-70
2022/01/28 12:33:58;;;;;;;23.65;18.65;;;;;;;;;;4816365;29;88695;-69
2022/01/28 12:36:32;;;;;;;27.90;18.02;;;;;;;;;;4804719;29;88122;-69
2022/01/28 12:39:11;;;;;;;27.27;20.95;;;;;;;;;;4804684;29;87118;-70
2022/01/28 12:41:53;;;;;;;25.27;18.65;;;;;;;;;;4806506;29;87271;-68
2022/01/28 12:44:21;;;;;;;25.08;19.95;;;;;;;;;;4815976;29;87834;-69
2022/01/28 12:46:57;;;;;;;24.55;17.00;;;;;;;;;;4808100;29;87675;-69
2022/01/28 12:49:29;;;;;;;25.92;19.15;;;;;;;;;;4793144;29;86942;-68
2022/01/28 12:52:02;;;;;;;22.95;18.23;;;;;;;;;;4810864;29;86865;-69
2022/01/28 12:54:48;;;;;;;27.77;19.25;;;;;;;;;;4821436;29;87937;-69
2022/01/28 12:57:17;;;;;;;26.77;18.80;;;;;;;;;;4810846;29;87512;-68
2022/01/28 12:59:47;;;;;;;25.13;18.80;;;;;;;;;;4794477;29;88380;-68
2022/01/28 13:02:16;;;;;;;23.15;18.52;;;;;;;;;;4825391;29;87131;-69
2022/01/28 13:05:33;;;;;;;25.00;18.10;;;;;;;;;;4810450;29;87770;-68
2022/01/28 13:10:30;;;;;;;31.98;18.67;;;;;;;;;;4811144;29;87204;-69
2022/01/28 13:13:09;;;;;;;22.17;17.13;;;;;;;;;;4811217;29;86971;-68
2022/01/28 13:15:37;;;;;;;22.33;18.38;;;;;;;;;;4811286;29;87907;-68
2022/01/28 13:18:06;;;;;;;23.00;15.65;;;;;;;;;;4810248;29;87300;-71
2022/01/28 13:20:38;;;;;;;22.75;17.80;;;;;;;;;;4810981;29;86983;-68
2022/01/28 13:23:07;;;;;;;22.38;16.45;;;;;;;;;;4811717;29;86926;-71
2022/01/28 13:25:34;;;;;;;25.00;18.25;;;;;;;;;;4824663;29;89164;-67
2022/01/28 13:28:05;;;;;;;23.05;17.25;;;;;;;;;;4809636;29;88571;-68
2022/01/28 13:30:38;;;;;;;22.92;16.33;;;;;;;;;;4809637;29;87394;-68
2022/01/28 13:33:10;;;;;;;22.60;17.92;;;;;;;;;;4803204;29;86950;-68
2022/01/28 13:35:39;;;;;;;22.08;18.25;;;;;;;;;;4799638;29;87380;-68
2022/01/28 13:38:19;;;;;;;27.23;20.73;;;;;;;;;;4807879;29;87613;-68
2022/01/28 13:40:46;;;;;;;24.58;19.15;;;;;;;;;;4824484;29;86874;-68
2022/01/28 13:43:19;;;;;;;27.58;20.50;;;;;;;;;;4810625;29;86385;-68
2022/01/28 13:45:55;;;;;;;24.95;19.23;;;;;;;;;;4809271;29;87855;-69
2022/01/28 13:48:32;;;;;;;23.60;18.70;;;;;;;;;;4823111;29;87825;-69
2022/01/28 13:51:05;;;;;;;23.27;16.95;;;;;;;;;;4809702;29;87847;-68
2022/01/28 13:56:35;;;;;;;21.75;15.85;;;;;;;;;;4816146;29;89453;-68
2022/01/28 13:59:16;;;;;;;28.42;17.42;;;;;;;;;;4808017;29;87738;-68
2022/01/28 14:01:45;;;;;;;21.73;17.67;;;;;;;;;;4808353;29;87056;-69
2022/01/28 14:04:33;;;;;;;23.75;18.48;;;;;;;;;;4818385;29;87059;-68
2022/01/28 14:07:19;;;;;;;27.45;18.45;;;;;;;;;;4813671;29;87911;-69
2022/01/28 14:09:50;;;;;;;23.23;19.23;;;;;;;;;;4806077;29;87796;-68
2022/01/28 14:12:41;;;;;;;23.73;17.98;;;;;;;;;;4821550;29;87325;-68
2022/01/28 14:17:55;;;;;;;25.15;21.10;;;;;;;;;;4809206;29;88592;-68
2022/01/28 14:20:22;;;;;;;30.85;20.85;;;;;;;;;;4807426;29;88806;-68
2022/01/28 14:22:49;;;;;;;27.38;21.80;;;;;;;;;;4793851;29;87022;-70
2022/01/28 14:25:16;;;;;;;23.65;20.45;;;;;;;;;;4810064;29;87377;-67
2022/01/28 14:30:18;;;;;;;28.25;21.45;;;;;;;;;;4809543;29;89219;-68
2022/01/28 14:32:45;;;;;;;27.25;22.10;;;;;;;;;;4809172;29;86884;-69
2022/01/28 14:35:13;;;;;;;27.67;22.58;;;;;;;;;;4791727;29;86359;-69
2022/01/28 14:37:40;;;;;;;31.88;23.85;;;;;;;;;;4806761;29;88215;-69
2022/01/28 14:40:09;;;;;;;34.08;24.83;;;;;;;;;;4808934;29;87608;-69
2022/01/28 14:42:36;;;;;;;42.35;26.63;;;;;;;;;;4809045;29;87791;-68
2022/01/28 14:45:04;;;;;;;33.63;24.73;;;;;;;;;;4793453;29;86986;-68
2022/01/28 14:47:31;;;;;;;34.03;25.17;;;;;;;;;;4807175;29;87154;-69
2022/01/28 14:49:59;;;;;;;33.35;25.33;;;;;;;;;;4810031;29;87662;-68
2022/01/28 14:52:29;;;;;;;33.78;25.10;;;;;;;;;;4807920;29;86988;-69
2022/01/28 14:54:57;;;;;;;36.13;27.13;;;;;;;;;;4823177;29;87450;-69
2022/01/28 14:57:27;;;;;;;33.03;26.10;;;;;;;;;;4802277;29;87860;-68
2022/01/28 14:59:54;;;;;;;35.00;26.20;;;;;;;;;;4809641;29;88012;-68
2022/01/28 15:02:24;;;;;;;32.20;25.00;;;;;;;;;;4809527;29;86923;-69
2022/01/28 15:04:58;;;;;;;33.88;28.00;;;;;;;;;;4808698;29;87012;-68
2022/01/28 15:07:28;;;;;;;38.45;27.95;;;;;;;;;;4808619;29;88922;-68
2022/01/28 15:09:58;;;;;;;34.78;28.33;;;;;;;;;;4806691;29;88479;-68
2022/01/28 15:12:25;;;;;;;35.92;27.98;;;;;;;;;;4802088;29;86869;-68
2022/01/28 15:14:52;;;;;;;34.33;26.63;;;;;;;;;;4809244;29;87013;-68
2022/01/28 15:17:20;;;;;;;36.58;27.85;;;;;;;;;;4809301;29;87824;-67
2022/01/28 15:19:48;;;;;;;36.00;27.88;;;;;;;;;;4823014;29;87016;-68
2022/01/28 15:22:15;;;;;;;33.47;26.75;;;;;;;;;;4802616;29;87654;-68
2022/01/28 15:24:42;;;;;;;38.00;26.60;;;;;;;;;;4808125;29;86373;-68
2022/01/28 15:27:09;;;;;;;40.28;28.67;;;;;;;;;;4807985;29;88357;-68
2022/01/28 15:30:07;;;;;;;34.05;26.13;;;;;;;;;;4809037;29;87541;-68
2022/01/28 15:37:47;;;;;;;39.38;27.75;;;;;;;;;;4822528;29;88661;-68
2022/01/28 15:40:14;;;;;;;40.28;29.67;;;;;;;;;;4806051;29;87656;-67
2022/01/28 15:42:41;;;;;;;38.20;29.95;;;;;;;;;;4808793;29;87102;-67
2022/01/28 15:45:09;;;;;;;37.03;30.40;;;;;;;;;;4808387;29;87677;-70
2022/01/28 15:47:35;;;;;;;35.47;29.38;;;;;;;;;;4823044;29;88281;-68
2022/01/28 15:50:06;;;;;;;39.50;29.52;;;;;;;;;;4822279;29;88076;-68
2022/01/28 15:52:33;;;;;;;36.35;28.50;;;;;;;;;;4808548;29;87039;-68
2022/01/28 15:55:00;;;;;;;38.40;28.80;;;;;;;;;;4822955;29;87059;-68
2022/01/28 15:57:27;;;;;;;39.38;32.28;;;;;;;;;;4821548;29;89161;-67
2022/01/28 15:59:54;;;;;;;38.33;28.63;;;;;;;;;;4792296;29;88468;-68
2022/01/28 16:02:21;;;;;;;39.60;29.60;;;;;;;;;;4776339;29;87047;-68
2022/01/28 16:04:49;;;;;;;43.97;31.25;;;;;;;;;;4808525;29;87275;-67
2022/01/28 16:07:17;;;;;;;42.45;29.83;;;;;;;;;;4805999;29;89089;-67
2022/01/28 16:09:52;;;;;;;40.40;29.42;;;;;;;;;;4806861;29;89081;-67